sensor_id;sensor_type;location;lat;lon;timestamp;P1;durP1;ratioP1;P2;durP2;ratioP2
4895;SDS011;2463;49.948;8.472;2022-09-12T00:01:26;102.57;;;9.75;;
4895;SDS011;2463;49.948;8.472;2022-09-12T00:03:53;103.28;;;9.80;;
4895;SDS011;2463;49.948;8.472;2022-09-12T00:06:24;104.97;;;9.90;;
4895;SDS011;2463;49.948;8.472;2022-09-12T00:08:54;104.03;;;9.50;;
4895;SDS011;2463;49.948;8.472;2022-09-12T00:11:22;104.50;;;9.98;;
4895;SDS011;2463;49.948;8.472;2022-09-12T00:13:49;102.32;;;8.43;;
4895;SDS011;2463;49.948;8.472;2022-09-12T00:16:16;102.05;;;9.57;;
4895;SDS011;2463;49.948;8.472;2022-09-12T00:18:46;105.63;;;10.32;;
4895;SDS011;2463;49.948;8.472;2022-09-12T00:21:14;103.60;;;9.50;;
4895;SDS011;2463;49.948;8.472;2022-09-12T00:23:41;112.05;;;9.60;;
4895;SDS011;2463;49.948;8.472;2022-09-12T00:26:08;106.32;;;10.80;;
4895;SDS011;2463;49.948;8.472;2022-09-12T00:28:35;105.07;;;10.15;;
4895;SDS011;2463;49.948;8.472;2022-09-12T00:31:04;114.63;;;12.90;;
4895;SDS011;2463;49.948;8.472;2022-09-12T00:33:33;103.15;;;10.65;;
4895;SDS011;2463;49.948;8.472;2022-09-12T00:36:04;108.75;;;11.70;;
4895;SDS011;2463;49.948;8.472;2022-09-12T00:38:33;108.85;;;11.45;;
4895;SDS011;2463;49.948;8.472;2022-09-12T00:41:04;111.10;;;11.50;;
4895;SDS011;2463;49.948;8.472;2022-09-12T00:46:09;106.90;;;10.63;;
4895;SDS011;2463;49.948;8.472;2022-09-12T00:48:46;103.93;;;10.13;;
4895;SDS011;2463;49.948;8.472;2022-09-12T00:51:17;105.43;;;10.68;;
4895;SDS011;2463;49.948;8.472;2022-09-12T00:53:45;105.70;;;10.40;;
4895;SDS011;2463;49.948;8.472;2022-09-12T00:56:16;107.78;;;11.77;;
4895;SDS011;2463;49.948;8.472;2022-09-12T00:58:48;105.28;;;10.82;;
4895;SDS011;2463;49.948;8.472;2022-09-12T01:01:20;106.18;;;12.30;;
4895;SDS011;2463;49.948;8.472;2022-09-12T01:03:47;108.30;;;11.57;;
4895;SDS011;2463;49.948;8.472;2022-09-12T01:06:15;106.93;;;11.68;;
4895;SDS011;2463;49.948;8.472;2022-09-12T01:08:46;105.68;;;10.60;;
4895;SDS011;2463;49.948;8.472;2022-09-12T01:11:14;105.53;;;11.55;;
4895;SDS011;2463;49.948;8.472;2022-09-12T01:13:42;104.10;;;11.05;;
4895;SDS011;2463;49.948;8.472;2022-09-12T01:16:10;113.57;;;12.80;;
4895;SDS011;2463;49.948;8.472;2022-09-12T01:18:41;108.97;;;12.90;;
4895;SDS011;2463;49.948;8.472;2022-09-12T01:21:22;105.30;;;11.70;;
4895;SDS011;2463;49.948;8.472;2022-09-12T01:30:14;107.30;;;12.05;;
4895;SDS011;2463;49.948;8.472;2022-09-12T01:38:24;114.28;;;11.65;;
4895;SDS011;2463;49.948;8.472;2022-09-12T01:46:49;101.13;;;9.40;;
4895;SDS011;2463;49.948;8.472;2022-09-12T01:49:41;102.18;;;7.90;;
4895;SDS011;2463;49.948;8.472;2022-09-12T01:52:27;111.15;;;10.77;;
4895;SDS011;2463;49.948;8.472;2022-09-12T01:57:45;107.38;;;11.35;;
4895;SDS011;2463;49.948;8.472;2022-09-12T02:00:19;107.07;;;11.38;;
4895;SDS011;2463;49.948;8.472;2022-09-12T02:02:56;110.13;;;11.30;;
4895;SDS011;2463;49.948;8.472;2022-09-12T02:05:49;107.72;;;11.65;;
4895;SDS011;2463;49.948;8.472;2022-09-12T02:08:20;108.55;;;12.43;;
4895;SDS011;2463;49.948;8.472;2022-09-12T02:10:54;106.28;;;10.57;;
4895;SDS011;2463;49.948;8.472;2022-09-12T02:13:31;104.00;;;11.13;;
4895;SDS011;2463;49.948;8.472;2022-09-12T02:16:33;107.13;;;10.35;;
4895;SDS011;2463;49.948;8.472;2022-09-12T02:19:17;106.97;;;11.52;;
4895;SDS011;2463;49.948;8.472;2022-09-12T02:21:57;103.70;;;9.38;;
4895;SDS011;2463;49.948;8.472;2022-09-12T02:24:36;110.18;;;11.18;;
4895;SDS011;2463;49.948;8.472;2022-09-12T02:27:13;104.13;;;10.00;;
4895;SDS011;2463;49.948;8.472;2022-09-12T02:29:48;104.95;;;10.00;;
4895;SDS011;2463;49.948;8.472;2022-09-12T02:40:24;105.22;;;11.10;;
4895;SDS011;2463;49.948;8.472;2022-09-12T02:42:51;106.45;;;11.23;;
4895;SDS011;2463;49.948;8.472;2022-09-12T02:45:18;103.22;;;9.90;;
4895;SDS011;2463;49.948;8.472;2022-09-12T02:47:49;106.07;;;11.57;;
4895;SDS011;2463;49.948;8.472;2022-09-12T02:50:27;105.30;;;10.02;;
4895;SDS011;2463;49.948;8.472;2022-09-12T02:52:54;104.70;;;10.52;;
4895;SDS011;2463;49.948;8.472;2022-09-12T02:55:26;109.53;;;10.35;;
4895;SDS011;2463;49.948;8.472;2022-09-12T02:57:55;103.32;;;10.43;;
4895;SDS011;2463;49.948;8.472;2022-09-12T03:00:22;107.10;;;11.57;;
4895;SDS011;2463;49.948;8.472;2022-09-12T03:05:54;104.70;;;9.55;;
4895;SDS011;2463;49.948;8.472;2022-09-12T03:11:30;103.78;;;10.55;;
4895;SDS011;2463;49.948;8.472;2022-09-12T03:14:20;114.97;;;10.93;;
4895;SDS011;2463;49.948;8.472;2022-09-12T03:17:00;106.57;;;11.30;;
4895;SDS011;2463;49.948;8.472;2022-09-12T03:19:58;113.40;;;13.95;;
4895;SDS011;2463;49.948;8.472;2022-09-12T03:30:21;106.88;;;12.27;;
4895;SDS011;2463;49.948;8.472;2022-09-12T03:32:49;105.35;;;11.38;;
4895;SDS011;2463;49.948;8.472;2022-09-12T03:35:18;109.82;;;12.48;;
4895;SDS011;2463;49.948;8.472;2022-09-12T03:37:48;107.68;;;11.98;;
4895;SDS011;2463;49.948;8.472;2022-09-12T03:40:16;108.57;;;11.38;;
4895;SDS011;2463;49.948;8.472;2022-09-12T03:42:43;119.40;;;13.30;;
4895;SDS011;2463;49.948;8.472;2022-09-12T03:45:10;110.20;;;12.32;;
4895;SDS011;2463;49.948;8.472;2022-09-12T03:47:37;109.13;;;12.70;;
4895;SDS011;2463;49.948;8.472;2022-09-12T03:50:05;109.32;;;13.32;;
4895;SDS011;2463;49.948;8.472;2022-09-12T03:52:32;108.18;;;13.02;;
4895;SDS011;2463;49.948;8.472;2022-09-12T03:54:58;109.47;;;13.35;;
4895;SDS011;2463;49.948;8.472;2022-09-12T03:57:25;109.88;;;13.00;;
4895;SDS011;2463;49.948;8.472;2022-09-12T03:59:52;107.78;;;11.60;;
4895;SDS011;2463;49.948;8.472;2022-09-12T04:02:19;108.53;;;13.15;;
4895;SDS011;2463;49.948;8.472;2022-09-12T04:04:46;109.65;;;12.88;;
4895;SDS011;2463;49.948;8.472;2022-09-12T04:07:14;110.15;;;13.07;;
4895;SDS011;2463;49.948;8.472;2022-09-12T04:09:41;111.78;;;12.10;;
4895;SDS011;2463;49.948;8.472;2022-09-12T04:12:08;107.97;;;11.27;;
4895;SDS011;2463;49.948;8.472;2022-09-12T04:14:35;107.82;;;11.60;;
4895;SDS011;2463;49.948;8.472;2022-09-12T04:17:02;111.88;;;12.30;;
4895;SDS011;2463;49.948;8.472;2022-09-12T04:19:29;111.57;;;12.25;;
4895;SDS011;2463;49.948;8.472;2022-09-12T04:21:55;107.78;;;11.85;;
4895;SDS011;2463;49.948;8.472;2022-09-12T04:24:22;112.65;;;14.55;;
4895;SDS011;2463;49.948;8.472;2022-09-12T04:26:49;111.78;;;13.77;;
4895;SDS011;2463;49.948;8.472;2022-09-12T04:29:15;110.75;;;13.50;;
4895;SDS011;2463;49.948;8.472;2022-09-12T04:31:42;109.70;;;13.20;;
4895;SDS011;2463;49.948;8.472;2022-09-12T04:34:09;107.20;;;12.05;;
4895;SDS011;2463;49.948;8.472;2022-09-12T04:36:36;107.47;;;12.45;;
4895;SDS011;2463;49.948;8.472;2022-09-12T04:39:03;108.00;;;11.95;;
4895;SDS011;2463;49.948;8.472;2022-09-12T04:41:32;107.80;;;12.40;;
4895;SDS011;2463;49.948;8.472;2022-09-12T04:44:01;109.60;;;11.43;;
4895;SDS011;2463;49.948;8.472;2022-09-12T04:46:36;106.68;;;11.35;;
4895;SDS011;2463;49.948;8.472;2022-09-12T04:49:05;107.05;;;11.43;;
4895;SDS011;2463;49.948;8.472;2022-09-12T04:51:33;107.10;;;11.15;;
4895;SDS011;2463;49.948;8.472;2022-09-12T04:54:03;111.80;;;13.18;;
4895;SDS011;2463;49.948;8.472;2022-09-12T04:56:44;106.63;;;11.43;;
4895;SDS011;2463;49.948;8.472;2022-09-12T04:59:14;106.82;;;11.52;;
4895;SDS011;2463;49.948;8.472;2022-09-12T05:01:42;107.45;;;11.43;;
4895;SDS011;2463;49.948;8.472;2022-09-12T05:04:09;107.55;;;10.20;;
4895;SDS011;2463;49.948;8.472;2022-09-12T05:06:38;107.93;;;11.23;;
4895;SDS011;2463;49.948;8.472;2022-09-12T05:09:07;104.15;;;10.90;;
4895;SDS011;2463;49.948;8.472;2022-09-12T05:11:37;106.35;;;12.45;;
4895;SDS011;2463;49.948;8.472;2022-09-12T05:14:25;108.20;;;10.40;;
4895;SDS011;2463;49.948;8.472;2022-09-12T05:16:52;111.13;;;12.88;;
4895;SDS011;2463;49.948;8.472;2022-09-12T05:19:19;112.82;;;11.75;;
4895;SDS011;2463;49.948;8.472;2022-09-12T05:21:45;106.07;;;10.77;;
4895;SDS011;2463;49.948;8.472;2022-09-12T05:24:12;106.07;;;11.38;;
4895;SDS011;2463;49.948;8.472;2022-09-12T05:26:38;106.18;;;11.68;;
4895;SDS011;2463;49.948;8.472;2022-09-12T05:29:05;107.03;;;11.52;;
4895;SDS011;2463;49.948;8.472;2022-09-12T05:31:32;108.85;;;12.23;;
4895;SDS011;2463;49.948;8.472;2022-09-12T05:33:59;113.00;;;12.23;;
4895;SDS011;2463;49.948;8.472;2022-09-12T05:36:27;105.63;;;10.73;;
4895;SDS011;2463;49.948;8.472;2022-09-12T05:38:55;107.65;;;11.73;;
4895;SDS011;2463;49.948;8.472;2022-09-12T05:41:24;107.35;;;12.23;;
4895;SDS011;2463;49.948;8.472;2022-09-12T05:43:53;108.60;;;11.88;;
4895;SDS011;2463;49.948;8.472;2022-09-12T05:46:21;106.93;;;12.15;;
4895;SDS011;2463;49.948;8.472;2022-09-12T05:48:53;107.90;;;11.75;;
4895;SDS011;2463;49.948;8.472;2022-09-12T05:51:25;107.03;;;11.40;;
4895;SDS011;2463;49.948;8.472;2022-09-12T05:53:54;105.20;;;11.82;;
4895;SDS011;2463;49.948;8.472;2022-09-12T05:56:23;110.25;;;12.25;;
4895;SDS011;2463;49.948;8.472;2022-09-12T05:58:52;113.22;;;13.00;;
4895;SDS011;2463;49.948;8.472;2022-09-12T06:01:21;110.43;;;12.18;;
4895;SDS011;2463;49.948;8.472;2022-09-12T06:03:50;113.28;;;12.65;;
4895;SDS011;2463;49.948;8.472;2022-09-12T06:06:19;105.65;;;11.70;;
4895;SDS011;2463;49.948;8.472;2022-09-12T06:08:48;106.25;;;12.00;;
4895;SDS011;2463;49.948;8.472;2022-09-12T06:11:18;106.75;;;12.57;;
4895;SDS011;2463;49.948;8.472;2022-09-12T06:13:51;110.25;;;13.45;;
4895;SDS011;2463;49.948;8.472;2022-09-12T06:16:21;107.68;;;12.25;;
4895;SDS011;2463;49.948;8.472;2022-09-12T06:18:51;106.22;;;11.93;;
4895;SDS011;2463;49.948;8.472;2022-09-12T06:21:20;106.93;;;12.45;;
4895;SDS011;2463;49.948;8.472;2022-09-12T06:23:48;105.75;;;12.07;;
4895;SDS011;2463;49.948;8.472;2022-09-12T06:26:16;111.70;;;12.20;;
4895;SDS011;2463;49.948;8.472;2022-09-12T06:28:46;107.00;;;12.52;;
4895;SDS011;2463;49.948;8.472;2022-09-12T06:31:14;111.28;;;13.18;;
4895;SDS011;2463;49.948;8.472;2022-09-12T06:33:44;107.03;;;11.88;;
4895;SDS011;2463;49.948;8.472;2022-09-12T06:36:20;103.68;;;11.27;;
4895;SDS011;2463;49.948;8.472;2022-09-12T06:39:00;102.47;;;12.23;;
4895;SDS011;2463;49.948;8.472;2022-09-12T06:41:30;103.53;;;11.63;;
4895;SDS011;2463;49.948;8.472;2022-09-12T06:43:58;114.63;;;13.10;;
4895;SDS011;2463;49.948;8.472;2022-09-12T06:46:26;106.25;;;11.90;;
4895;SDS011;2463;49.948;8.472;2022-09-12T06:48:56;106.85;;;11.05;;
4895;SDS011;2463;49.948;8.472;2022-09-12T06:51:24;105.85;;;11.65;;
4895;SDS011;2463;49.948;8.472;2022-09-12T06:53:55;104.72;;;12.65;;
4895;SDS011;2463;49.948;8.472;2022-09-12T06:56:23;103.28;;;11.70;;
4895;SDS011;2463;49.948;8.472;2022-09-12T06:58:52;103.50;;;11.32;;
4895;SDS011;2463;49.948;8.472;2022-09-12T07:03:53;104.75;;;12.15;;
4895;SDS011;2463;49.948;8.472;2022-09-12T07:06:22;101.05;;;10.80;;
4895;SDS011;2463;49.948;8.472;2022-09-12T07:08:55;103.60;;;10.85;;
4895;SDS011;2463;49.948;8.472;2022-09-12T07:11:25;108.40;;;12.30;;
4895;SDS011;2463;49.948;8.472;2022-09-12T07:13:54;100.38;;;11.30;;
4895;SDS011;2463;49.948;8.472;2022-09-12T07:16:21;100.57;;;11.40;;
4895;SDS011;2463;49.948;8.472;2022-09-12T07:18:49;100.60;;;11.15;;
4895;SDS011;2463;49.948;8.472;2022-09-12T07:21:17;98.00;;;9.70;;
4895;SDS011;2463;49.948;8.472;2022-09-12T07:23:44;97.75;;;9.52;;
4895;SDS011;2463;49.948;8.472;2022-09-12T07:26:12;94.45;;;9.50;;
4895;SDS011;2463;49.948;8.472;2022-09-12T07:28:39;97.43;;;9.20;;
4895;SDS011;2463;49.948;8.472;2022-09-12T07:31:07;93.10;;;8.20;;
4895;SDS011;2463;49.948;8.472;2022-09-12T07:33:39;92.70;;;9.07;;
4895;SDS011;2463;49.948;8.472;2022-09-12T07:36:11;89.87;;;7.07;;
4895;SDS011;2463;49.948;8.472;2022-09-12T07:38:39;95.33;;;8.60;;
4895;SDS011;2463;49.948;8.472;2022-09-12T07:41:13;87.30;;;7.20;;
4895;SDS011;2463;49.948;8.472;2022-09-12T07:43:42;90.50;;;7.10;;
4895;SDS011;2463;49.948;8.472;2022-09-12T07:46:09;89.60;;;8.50;;
4895;SDS011;2463;49.948;8.472;2022-09-12T07:48:37;90.37;;;8.40;;
4895;SDS011;2463;49.948;8.472;2022-09-12T07:51:05;85.60;;;6.60;;
4895;SDS011;2463;49.948;8.472;2022-09-12T07:53:35;85.07;;;6.50;;
4895;SDS011;2463;49.948;8.472;2022-09-12T07:56:03;85.30;;;6.63;;
4895;SDS011;2463;49.948;8.472;2022-09-12T07:58:32;82.90;;;6.00;;
4895;SDS011;2463;49.948;8.472;2022-09-12T08:01:01;83.07;;;6.73;;
4895;SDS011;2463;49.948;8.472;2022-09-12T08:03:31;81.70;;;6.40;;
4895;SDS011;2463;49.948;8.472;2022-09-12T08:06:14;85.20;;;7.40;;
4895;SDS011;2463;49.948;8.472;2022-09-12T08:08:42;83.07;;;6.23;;
4895;SDS011;2463;49.948;8.472;2022-09-12T08:11:10;83.30;;;7.50;;
4895;SDS011;2463;49.948;8.472;2022-09-12T08:13:39;82.13;;;6.63;;
4895;SDS011;2463;49.948;8.472;2022-09-12T08:16:10;81.97;;;6.60;;
4895;SDS011;2463;49.948;8.472;2022-09-12T08:18:39;81.40;;;6.20;;
4895;SDS011;2463;49.948;8.472;2022-09-12T08:21:13;80.83;;;6.20;;
4895;SDS011;2463;49.948;8.472;2022-09-12T08:23:42;82.30;;;7.20;;
4895;SDS011;2463;49.948;8.472;2022-09-12T08:26:10;81.40;;;6.07;;
4895;SDS011;2463;49.948;8.472;2022-09-12T08:28:37;82.00;;;7.30;;
4895;SDS011;2463;49.948;8.472;2022-09-12T08:31:10;81.07;;;5.67;;
4895;SDS011;2463;49.948;8.472;2022-09-12T08:33:38;81.10;;;6.23;;
4895;SDS011;2463;49.948;8.472;2022-09-12T08:36:06;80.40;;;5.63;;
4895;SDS011;2463;49.948;8.472;2022-09-12T08:38:36;80.67;;;5.67;;
4895;SDS011;2463;49.948;8.472;2022-09-12T08:43:53;79.00;;;5.50;;
4895;SDS011;2463;49.948;8.472;2022-09-12T08:49:29;80.97;;;5.90;;
4895;SDS011;2463;49.948;8.472;2022-09-12T08:52:11;79.40;;;6.00;;
4895;SDS011;2463;49.948;8.472;2022-09-12T08:54:42;78.47;;;5.10;;
4895;SDS011;2463;49.948;8.472;2022-09-12T08:57:13;78.23;;;5.20;;
4895;SDS011;2463;49.948;8.472;2022-09-12T08:59:41;79.40;;;5.80;;
4895;SDS011;2463;49.948;8.472;2022-09-12T09:02:21;78.50;;;5.20;;
4895;SDS011;2463;49.948;8.472;2022-09-12T09:05:14;79.63;;;5.00;;
4895;SDS011;2463;49.948;8.472;2022-09-12T09:10:50;78.67;;;5.37;;
4895;SDS011;2463;49.948;8.472;2022-09-12T09:13:49;78.60;;;5.77;;
4895;SDS011;2463;49.948;8.472;2022-09-12T09:16:47;79.20;;;5.70;;
4895;SDS011;2463;49.948;8.472;2022-09-12T09:19:36;79.40;;;5.20;;
4895;SDS011;2463;49.948;8.472;2022-09-12T09:22:10;80.10;;;5.40;;
4895;SDS011;2463;49.948;8.472;2022-09-12T09:24:43;81.17;;;6.40;;
4895;SDS011;2463;49.948;8.472;2022-09-12T09:30:11;81.23;;;6.07;;
4895;SDS011;2463;49.948;8.472;2022-09-12T09:32:43;81.47;;;6.07;;
4895;SDS011;2463;49.948;8.472;2022-09-12T09:35:20;84.30;;;6.33;;
4895;SDS011;2463;49.948;8.472;2022-09-12T09:41:16;84.00;;;7.77;;
4895;SDS011;2463;49.948;8.472;2022-09-12T09:43:50;82.47;;;5.63;;
4895;SDS011;2463;49.948;8.472;2022-09-12T09:46:17;84.33;;;6.30;;
4895;SDS011;2463;49.948;8.472;2022-09-12T09:48:44;82.40;;;5.60;;
4895;SDS011;2463;49.948;8.472;2022-09-12T09:51:19;82.27;;;5.80;;
4895;SDS011;2463;49.948;8.472;2022-09-12T09:53:53;82.77;;;5.40;;
4895;SDS011;2463;49.948;8.472;2022-09-12T09:56:28;82.27;;;6.00;;
4895;SDS011;2463;49.948;8.472;2022-09-12T09:59:16;83.47;;;6.67;;
4895;SDS011;2463;49.948;8.472;2022-09-12T10:01:50;83.30;;;5.90;;
4895;SDS011;2463;49.948;8.472;2022-09-12T10:04:29;84.10;;;5.80;;
4895;SDS011;2463;49.948;8.472;2022-09-12T10:06:58;84.57;;;6.07;;
4895;SDS011;2463;49.948;8.472;2022-09-12T10:09:27;84.27;;;6.07;;
4895;SDS011;2463;49.948;8.472;2022-09-12T10:11:58;83.30;;;5.30;;
4895;SDS011;2463;49.948;8.472;2022-09-12T10:14:29;84.67;;;6.23;;
4895;SDS011;2463;49.948;8.472;2022-09-12T10:17:28;84.67;;;5.90;;
4895;SDS011;2463;49.948;8.472;2022-09-12T10:19:59;84.97;;;6.67;;
4895;SDS011;2463;49.948;8.472;2022-09-12T10:22:46;83.87;;;5.60;;
4895;SDS011;2463;49.948;8.472;2022-09-12T10:25:14;83.37;;;5.90;;
4895;SDS011;2463;49.948;8.472;2022-09-12T10:27:50;83.70;;;5.33;;
4895;SDS011;2463;49.948;8.472;2022-09-12T10:30:19;84.07;;;5.90;;
4895;SDS011;2463;49.948;8.472;2022-09-12T10:32:50;84.67;;;5.47;;
4895;SDS011;2463;49.948;8.472;2022-09-12T10:35:18;90.10;;;5.77;;
4895;SDS011;2463;49.948;8.472;2022-09-12T10:37:55;83.13;;;5.33;;
4895;SDS011;2463;49.948;8.472;2022-09-12T10:40:24;84.40;;;5.37;;
4895;SDS011;2463;49.948;8.472;2022-09-12T10:43:16;83.10;;;5.60;;
4895;SDS011;2463;49.948;8.472;2022-09-12T10:45:43;84.90;;;5.50;;
4895;SDS011;2463;49.948;8.472;2022-09-12T10:48:27;83.30;;;5.00;;
4895;SDS011;2463;49.948;8.472;2022-09-12T10:50:57;84.70;;;5.23;;
4895;SDS011;2463;49.948;8.472;2022-09-12T10:53:28;83.37;;;5.00;;
4895;SDS011;2463;49.948;8.472;2022-09-12T10:56:12;85.17;;;5.47;;
4895;SDS011;2463;49.948;8.472;2022-09-12T11:01:34;84.10;;;5.10;;
4895;SDS011;2463;49.948;8.472;2022-09-12T11:09:30;83.50;;;5.27;;
4895;SDS011;2463;49.948;8.472;2022-09-12T11:15:02;84.77;;;5.60;;
4895;SDS011;2463;49.948;8.472;2022-09-12T11:23:42;84.23;;;5.80;;
4895;SDS011;2463;49.948;8.472;2022-09-12T11:29:02;83.53;;;5.90;;
4895;SDS011;2463;49.948;8.472;2022-09-12T11:46:08;83.37;;;5.53;;
4895;SDS011;2463;49.948;8.472;2022-09-12T11:51:43;84.60;;;6.07;;
4895;SDS011;2463;49.948;8.472;2022-09-12T11:54:32;85.17;;;5.20;;
4895;SDS011;2463;49.948;8.472;2022-09-12T12:00:28;83.23;;;5.30;;
4895;SDS011;2463;49.948;8.472;2022-09-12T12:03:03;86.87;;;5.57;;
4895;SDS011;2463;49.948;8.472;2022-09-12T12:05:58;82.13;;;4.90;;
4895;SDS011;2463;49.948;8.472;2022-09-12T12:08:37;85.30;;;5.40;;
4895;SDS011;2463;49.948;8.472;2022-09-12T12:11:06;85.47;;;5.90;;
4895;SDS011;2463;49.948;8.472;2022-09-12T12:13:47;84.50;;;5.33;;
4895;SDS011;2463;49.948;8.472;2022-09-12T12:16:28;85.20;;;5.67;;
4895;SDS011;2463;49.948;8.472;2022-09-12T12:18:59;83.40;;;4.40;;
4895;SDS011;2463;49.948;8.472;2022-09-12T12:21:37;80.77;;;4.30;;
4895;SDS011;2463;49.948;8.472;2022-09-12T12:26:44;82.60;;;5.07;;
4895;SDS011;2463;49.948;8.472;2022-09-12T12:39:57;83.10;;;4.53;;
4895;SDS011;2463;49.948;8.472;2022-09-12T12:50:03;82.40;;;4.30;;
4895;SDS011;2463;49.948;8.472;2022-09-12T12:52:50;84.07;;;4.57;;
4895;SDS011;2463;49.948;8.472;2022-09-12T12:55:25;83.50;;;4.90;;
4895;SDS011;2463;49.948;8.472;2022-09-12T12:58:04;84.10;;;4.60;;
4895;SDS011;2463;49.948;8.472;2022-09-12T13:00:36;83.27;;;4.13;;
4895;SDS011;2463;49.948;8.472;2022-09-12T13:10:53;83.83;;;4.77;;
4895;SDS011;2463;49.948;8.472;2022-09-12T13:13:58;83.27;;;4.93;;
4895;SDS011;2463;49.948;8.472;2022-09-12T13:17:14;85.73;;;4.97;;
4895;SDS011;2463;49.948;8.472;2022-09-12T13:19:21;84.87;;;4.50;;
4895;SDS011;2463;49.948;8.472;2022-09-12T13:22:01;84.37;;;4.90;;
4895;SDS011;2463;49.948;8.472;2022-09-12T13:24:34;84.07;;;4.50;;
4895;SDS011;2463;49.948;8.472;2022-09-12T13:27:15;83.97;;;4.60;;
4895;SDS011;2463;49.948;8.472;2022-09-12T13:29:46;82.27;;;4.33;;
4895;SDS011;2463;49.948;8.472;2022-09-12T13:32:13;83.77;;;4.80;;
4895;SDS011;2463;49.948;8.472;2022-09-12T13:37:19;82.40;;;4.10;;
4895;SDS011;2463;49.948;8.472;2022-09-12T13:45:54;88.30;;;5.47;;
4895;SDS011;2463;49.948;8.472;2022-09-12T13:48:22;84.47;;;5.10;;
4895;SDS011;2463;49.948;8.472;2022-09-12T13:50:52;82.27;;;4.30;;
4895;SDS011;2463;49.948;8.472;2022-09-12T13:53:23;83.87;;;4.90;;
4895;SDS011;2463;49.948;8.472;2022-09-12T13:55:55;83.83;;;4.30;;
4895;SDS011;2463;49.948;8.472;2022-09-12T14:03:40;83.60;;;4.73;;
4895;SDS011;2463;49.948;8.472;2022-09-12T14:06:36;83.80;;;4.50;;
4895;SDS011;2463;49.948;8.472;2022-09-12T14:09:31;84.03;;;4.60;;
4895;SDS011;2463;49.948;8.472;2022-09-12T14:12:04;82.50;;;4.47;;
4895;SDS011;2463;49.948;8.472;2022-09-12T14:14:44;83.33;;;4.33;;
4895;SDS011;2463;49.948;8.472;2022-09-12T14:17:22;83.13;;;4.43;;
4895;SDS011;2463;49.948;8.472;2022-09-12T14:19:59;82.40;;;4.00;;
4895;SDS011;2463;49.948;8.472;2022-09-12T14:22:49;83.93;;;4.43;;
4895;SDS011;2463;49.948;8.472;2022-09-12T14:25:20;83.37;;;4.50;;
4895;SDS011;2463;49.948;8.472;2022-09-12T14:27:55;83.20;;;4.17;;
4895;SDS011;2463;49.948;8.472;2022-09-12T14:30:24;84.33;;;4.53;;
4895;SDS011;2463;49.948;8.472;2022-09-12T14:33:01;85.20;;;4.10;;
4895;SDS011;2463;49.948;8.472;2022-09-12T14:35:38;82.73;;;4.50;;
4895;SDS011;2463;49.948;8.472;2022-09-12T14:40:45;84.37;;;4.33;;
4895;SDS011;2463;49.948;8.472;2022-09-12T14:43:20;83.67;;;4.70;;
4895;SDS011;2463;49.948;8.472;2022-09-12T14:45:53;83.10;;;3.63;;
4895;SDS011;2463;49.948;8.472;2022-09-12T14:48:25;84.47;;;4.67;;
4895;SDS011;2463;49.948;8.472;2022-09-12T14:50:55;81.67;;;3.93;;
4895;SDS011;2463;49.948;8.472;2022-09-12T14:53:35;84.80;;;4.30;;
4895;SDS011;2463;49.948;8.472;2022-09-12T14:56:09;83.87;;;4.30;;
4895;SDS011;2463;49.948;8.472;2022-09-12T14:58:38;82.87;;;4.13;;
4895;SDS011;2463;49.948;8.472;2022-09-12T15:06:01;85.50;;;4.37;;
4895;SDS011;2463;49.948;8.472;2022-09-12T15:08:30;83.63;;;4.80;;
4895;SDS011;2463;49.948;8.472;2022-09-12T15:10:57;83.43;;;4.20;;
4895;SDS011;2463;49.948;8.472;2022-09-12T15:13:25;83.47;;;4.23;;
4895;SDS011;2463;49.948;8.472;2022-09-12T15:15:54;84.00;;;4.63;;
4895;SDS011;2463;49.948;8.472;2022-09-12T15:18:23;83.33;;;4.63;;
4895;SDS011;2463;49.948;8.472;2022-09-12T15:20:53;82.53;;;4.20;;
4895;SDS011;2463;49.948;8.472;2022-09-12T15:25:58;85.60;;;4.50;;
4895;SDS011;2463;49.948;8.472;2022-09-12T15:28:25;85.00;;;5.03;;
4895;SDS011;2463;49.948;8.472;2022-09-12T15:30:53;84.07;;;4.57;;
4895;SDS011;2463;49.948;8.472;2022-09-12T15:33:22;81.97;;;4.20;;
4895;SDS011;2463;49.948;8.472;2022-09-12T15:35:50;84.00;;;4.30;;
4895;SDS011;2463;49.948;8.472;2022-09-12T15:38:18;84.07;;;5.03;;
4895;SDS011;2463;49.948;8.472;2022-09-12T15:40:51;84.33;;;4.23;;
4895;SDS011;2463;49.948;8.472;2022-09-12T15:43:19;83.60;;;4.70;;
4895;SDS011;2463;49.948;8.472;2022-09-12T15:45:47;82.97;;;4.00;;
4895;SDS011;2463;49.948;8.472;2022-09-12T15:48:16;85.23;;;5.00;;
4895;SDS011;2463;49.948;8.472;2022-09-12T15:50:44;84.10;;;3.93;;
4895;SDS011;2463;49.948;8.472;2022-09-12T15:53:14;86.40;;;4.93;;
4895;SDS011;2463;49.948;8.472;2022-09-12T15:55:42;85.17;;;4.30;;
4895;SDS011;2463;49.948;8.472;2022-09-12T15:58:09;85.27;;;4.43;;
4895;SDS011;2463;49.948;8.472;2022-09-12T16:00:36;84.10;;;4.40;;
4895;SDS011;2463;49.948;8.472;2022-09-12T16:03:03;84.00;;;4.93;;
4895;SDS011;2463;49.948;8.472;2022-09-12T16:05:30;84.77;;;4.87;;
4895;SDS011;2463;49.948;8.472;2022-09-12T16:07:57;84.37;;;4.43;;
4895;SDS011;2463;49.948;8.472;2022-09-12T16:10:24;85.87;;;5.00;;
4895;SDS011;2463;49.948;8.472;2022-09-12T16:12:53;83.70;;;4.60;;
4895;SDS011;2463;49.948;8.472;2022-09-12T16:15:21;84.50;;;4.50;;
4895;SDS011;2463;49.948;8.472;2022-09-12T16:17:49;85.33;;;4.20;;
4895;SDS011;2463;49.948;8.472;2022-09-12T16:20:17;86.27;;;4.47;;
4895;SDS011;2463;49.948;8.472;2022-09-12T16:22:44;88.13;;;5.20;;
4895;SDS011;2463;49.948;8.472;2022-09-12T16:25:11;85.57;;;4.90;;
4895;SDS011;2463;49.948;8.472;2022-09-12T16:27:38;85.00;;;4.70;;
4895;SDS011;2463;49.948;8.472;2022-09-12T16:30:05;86.37;;;5.07;;
4895;SDS011;2463;49.948;8.472;2022-09-12T16:32:33;85.97;;;5.00;;
4895;SDS011;2463;49.948;8.472;2022-09-12T16:35:00;86.37;;;5.10;;
4895;SDS011;2463;49.948;8.472;2022-09-12T16:37:27;87.20;;;5.50;;
4895;SDS011;2463;49.948;8.472;2022-09-12T16:39:54;85.70;;;4.53;;
4895;SDS011;2463;49.948;8.472;2022-09-12T16:42:21;85.00;;;4.80;;
4895;SDS011;2463;49.948;8.472;2022-09-12T16:44:48;85.20;;;5.23;;
4895;SDS011;2463;49.948;8.472;2022-09-12T16:47:14;85.77;;;4.80;;
4895;SDS011;2463;49.948;8.472;2022-09-12T16:49:41;91.70;;;5.00;;
4895;SDS011;2463;49.948;8.472;2022-09-12T16:52:08;85.13;;;4.70;;
4895;SDS011;2463;49.948;8.472;2022-09-12T16:54:35;86.00;;;4.53;;
4895;SDS011;2463;49.948;8.472;2022-09-12T16:57:02;85.20;;;4.53;;
4895;SDS011;2463;49.948;8.472;2022-09-12T16:59:30;86.30;;;4.67;;
4895;SDS011;2463;49.948;8.472;2022-09-12T17:01:57;87.37;;;5.07;;
4895;SDS011;2463;49.948;8.472;2022-09-12T17:04:24;90.07;;;5.10;;
4895;SDS011;2463;49.948;8.472;2022-09-12T17:06:50;86.77;;;5.27;;
4895;SDS011;2463;49.948;8.472;2022-09-12T17:09:17;86.57;;;4.83;;
4895;SDS011;2463;49.948;8.472;2022-09-12T17:11:45;90.67;;;4.97;;
4895;SDS011;2463;49.948;8.472;2022-09-12T17:14:12;87.77;;;4.87;;
4895;SDS011;2463;49.948;8.472;2022-09-12T17:16:40;86.40;;;4.63;;
4895;SDS011;2463;49.948;8.472;2022-09-12T17:19:15;87.80;;;4.70;;
4895;SDS011;2463;49.948;8.472;2022-09-12T17:21:44;86.30;;;4.80;;
4895;SDS011;2463;49.948;8.472;2022-09-12T17:24:15;87.80;;;5.10;;
4895;SDS011;2463;49.948;8.472;2022-09-12T17:26:43;88.17;;;4.77;;
4895;SDS011;2463;49.948;8.472;2022-09-12T17:29:11;88.47;;;5.70;;
4895;SDS011;2463;49.948;8.472;2022-09-12T17:31:39;89.50;;;5.43;;
4895;SDS011;2463;49.948;8.472;2022-09-12T17:34:07;90.60;;;5.63;;
4895;SDS011;2463;49.948;8.472;2022-09-12T17:36:34;88.82;;;5.30;;
4895;SDS011;2463;49.948;8.472;2022-09-12T17:39:01;90.17;;;5.57;;
4895;SDS011;2463;49.948;8.472;2022-09-12T17:41:29;91.57;;;5.57;;
4895;SDS011;2463;49.948;8.472;2022-09-12T17:43:59;88.93;;;4.70;;
4895;SDS011;2463;49.948;8.472;2022-09-12T17:46:31;89.77;;;5.10;;
4895;SDS011;2463;49.948;8.472;2022-09-12T17:49:05;90.47;;;5.30;;
4895;SDS011;2463;49.948;8.472;2022-09-12T17:51:33;92.07;;;6.30;;
4895;SDS011;2463;49.948;8.472;2022-09-12T17:54:02;89.73;;;5.90;;